Time;durP1;ratioP1;P1;durP2;ratioP2;P2;SDS_P1;SDS_P2;PMS_P1;PMS_P2;Temp;Humidity;BMP_temperature;BMP_pressure;BME280_temperature;BME280_humidity;BME280_pressure;Samples;Min_cycle;Max_cycle;Signal;HPM_P1;HPM_P2
2022/01/26 00:07:52;;;;;;;1999.90;999.90;;;3.40;99.90;;;;;;5072048;28;20263;-75
2022/01/26 00:10:18;;;;;;;1999.90;999.90;;;3.40;99.90;;;;;;5071982;28;20186;-75
2022/01/26 00:12:44;;;;;;;1999.90;999.90;;;3.40;99.90;;;;;;5071894;28;20199;-75
2022/01/26 00:15:10;;;;;;;1999.90;999.90;;;3.50;99.90;;;;;;5071709;28;20159;-75
2022/01/26 00:17:36;;;;;;;1999.90;999.90;;;3.40;99.90;;;;;;5071932;28;20166;-75
2022/01/26 00:25:23;;;;;;;1999.90;999.90;;;3.30;99.90;;;;;;5071688;28;20262;-75
2022/01/26 00:38:46;;;;;;;1999.90;999.90;;;3.40;99.90;;;;;;5072073;28;20228;-75
2022/01/26 00:41:17;;;;;;;1999.90;999.90;;;3.30;99.90;;;;;;5071782;28;20171;-75
2022/01/26 00:43:50;;;;;;;1999.90;999.90;;;3.30;99.90;;;;;;5071625;28;20193;-76
2022/01/26 00:46:17;;;;;;;1999.90;999.90;;;3.20;99.90;;;;;;5071445;28;20642;-74
2022/01/26 00:48:43;;;;;;;1999.90;999.90;;;3.20;99.90;;;;;;5071541;28;20274;-76
2022/01/26 00:51:11;;;;;;;1999.90;999.90;;;3.20;99.90;;;;;;5071712;28;20196;-75
2022/01/26 00:53:43;;;;;;;1999.90;999.90;;;3.20;99.90;;;;;;5071542;28;20277;-74
2022/01/26 00:56:09;;;;;;;1999.90;999.90;;;3.20;99.90;;;;;;5071331;28;20163;-75
2022/01/26 00:58:34;;;;;;;1999.90;999.90;;;3.20;99.90;;;;;;5053586;28;20248;-75
2022/01/26 01:01:02;;;;;;;1999.90;999.90;;;3.30;99.90;;;;;;5071553;28;20234;-75
2022/01/26 01:03:30;;;;;;;1999.90;999.90;;;3.20;99.90;;;;;;5073466;28;20660;-75
2022/01/26 01:08:27;;;;;;;1999.90;999.90;;;3.20;99.90;;;;;;5075381;28;20194;-75
2022/01/26 01:10:56;;;;;;;1999.90;999.90;;;3.20;99.90;;;;;;5075521;28;20177;-75
2022/01/26 01:13:31;;;;;;;1999.90;999.90;;;3.20;99.90;;;;;;5075241;28;20193;-76
2022/01/26 01:15:57;;;;;;;1999.90;999.90;;;3.20;99.90;;;;;;5075013;28;20178;-75
2022/01/26 01:18:31;;;;;;;1999.90;999.90;;;3.30;99.90;;;;;;5075106;28;20559;-76
2022/01/26 01:34:06;;;;;;;1999.90;999.90;;;3.30;99.90;;;;;;5074607;28;20556;-75
2022/01/26 01:36:33;;;;;;;1999.90;999.90;;;3.30;99.90;;;;;;5074748;28;20178;-75
2022/01/26 01:38:58;;;;;;;1999.90;999.90;;;3.30;99.90;;;;;;5074720;28;20190;-75
2022/01/26 01:41:24;;;;;;;1999.90;999.90;;;3.30;99.90;;;;;;5056833;28;20205;-76
2022/01/26 01:43:50;;;;;;;1999.90;999.90;;;3.30;99.90;;;;;;5074567;28;20682;-76
2022/01/26 01:46:15;;;;;;;1999.90;999.90;;;3.30;99.90;;;;;;5074619;28;20166;-75
2022/01/26 01:48:41;;;;;;;1999.90;999.90;;;3.20;99.90;;;;;;5074531;28;20198;-75
2022/01/26 01:51:10;;;;;;;1999.90;999.90;;;3.20;99.90;;;;;;5074547;28;20164;-75
2022/01/26 01:53:40;;;;;;;1999.90;999.90;;;3.20;99.90;;;;;;5074373;28;20190;-76
2022/01/26 01:56:08;;;;;;;1999.90;999.90;;;3.20;99.90;;;;;;5074436;28;20163;-75
2022/01/26 01:58:34;;;;;;;1999.90;999.90;;;3.30;99.90;;;;;;5074397;28;20725;-75
2022/01/26 02:01:00;;;;;;;1999.90;999.90;;;3.20;99.90;;;;;;5074410;28;20167;-75
2022/01/26 02:03:26;;;;;;;1999.90;999.90;;;3.10;99.90;;;;;;5074256;28;20686;-75
2022/01/26 02:05:52;;;;;;;1999.90;999.90;;;3.10;99.90;;;;;;5074098;28;20167;-75
2022/01/26 02:08:18;;;;;;;1999.90;999.90;;;3.00;99.90;;;;;;5074115;28;20445;-75
2022/01/26 02:10:46;;;;;;;1999.90;999.90;;;3.00;99.90;;;;;;5074387;28;20198;-75
2022/01/26 02:16:07;;;;;;;1999.90;999.90;;;3.00;99.90;;;;;;5073386;28;20148;-76
2022/01/26 02:21:18;;;;;;;1999.90;999.90;;;3.00;99.90;;;;;;5073999;28;20656;-76
2022/01/26 03:01:58;;;;;;;1999.90;999.90;;;2.70;99.90;;;;;;5073084;28;20258;-74
2022/01/26 03:07:01;;;;;;;1999.90;999.90;;;2.70;99.90;;;;;;5073044;28;20165;-76
2022/01/26 03:09:32;;;;;;;1999.90;999.90;;;2.80;99.90;;;;;;5072995;28;20159;-75
2022/01/26 03:12:00;;;;;;;1999.90;999.90;;;2.90;99.90;;;;;;5072866;28;20180;-75
2022/01/26 03:19:46;;;;;;;1999.90;999.90;;;3.00;99.90;;;;;;5072824;28;20179;-75
2022/01/26 03:30:29;;;;;;;1999.90;999.90;;;3.00;99.90;;;;;;5072749;28;20175;-75
2022/01/26 03:38:06;;;;;;;1999.90;999.90;;;3.00;99.90;;;;;;5072444;28;20581;-75
2022/01/26 03:40:35;;;;;;;1999.90;999.90;;;3.00;99.90;;;;;;5072397;28;20171;-75
2022/01/26 03:43:01;;;;;;;1999.90;999.90;;;3.00;99.90;;;;;;5072388;28;20186;-75
2022/01/26 03:45:27;;;;;;;1999.90;999.90;;;3.00;99.90;;;;;;5072084;28;20881;-75
2022/01/26 03:47:54;;;;;;;1999.90;999.90;;;3.00;99.90;;;;;;5072122;28;20256;-74
2022/01/26 03:50:21;;;;;;;1999.90;999.90;;;3.00;99.90;;;;;;5072257;28;20258;-74
2022/01/26 03:52:47;;;;;;;1999.90;999.90;;;3.10;99.90;;;;;;5072094;28;20229;-76
2022/01/26 03:55:12;;;;;;;1999.90;999.90;;;3.10;99.90;;;;;;5071972;28;20218;-74
2022/01/26 03:57:38;;;;;;;1999.90;999.90;;;3.10;99.90;;;;;;5072210;28;20249;-75
2022/01/26 04:00:07;;;;;;;1999.90;999.90;;;3.10;99.90;;;;;;5072145;28;20570;-75
2022/01/26 04:02:34;;;;;;;1999.90;999.90;;;3.10;99.90;;;;;;5072003;28;20566;-74
2022/01/26 04:05:02;;;;;;;1999.90;999.90;;;3.10;99.90;;;;;;5071751;28;20202;-76
2022/01/26 04:07:27;;;;;;;1999.90;999.90;;;3.10;99.90;;;;;;5071995;28;20186;-74
2022/01/26 04:10:01;;;;;;;1999.90;999.90;;;3.00;99.90;;;;;;5072093;28;20170;-75
2022/01/26 04:12:26;;;;;;;1999.90;999.90;;;3.00;99.90;;;;;;5072017;28;20204;-75
2022/01/26 04:14:58;;;;;;;1999.90;999.90;;;3.10;99.90;;;;;;5071644;28;20254;-75
2022/01/26 04:17:24;;;;;;;1999.90;999.90;;;3.20;99.90;;;;;;5071952;28;20173;-75
2022/01/26 04:19:55;;;;;;;1999.90;999.90;;;3.20;99.90;;;;;;5071941;28;20171;-74
2022/01/26 04:22:27;;;;;;;1999.90;999.90;;;3.30;99.90;;;;;;5071862;28;20598;-74
2022/01/26 04:24:54;;;;;;;1999.90;999.90;;;3.30;99.90;;;;;;5071690;28;20151;-75
2022/01/26 04:27:30;;;;;;;1999.90;999.90;;;3.30;99.90;;;;;;5071724;28;20197;-76
2022/01/26 04:29:55;;;;;;;1999.90;999.90;;;3.20;99.90;;;;;;5071873;28;20689;-75
2022/01/26 04:34:56;;;;;;;1999.90;999.90;;;3.20;99.90;;;;;;5010563;28;20204;-74
2022/01/26 04:37:36;;;;;;;1999.90;999.90;;;3.20;99.90;;;;;;5012048;28;20684;-74
2022/01/26 04:40:04;;;;;;;1999.90;999.90;;;3.10;99.90;;;;;;5016071;28;20183;-75
2022/01/26 04:42:44;;;;;;;1999.90;999.90;;;3.20;99.90;;;;;;5016002;28;20629;-75
2022/01/26 04:45:11;;;;;;;1999.90;999.90;;;3.10;99.90;;;;;;5015817;28;20649;-75
2022/01/26 04:47:37;;;;;;;1999.90;999.90;;;3.10;99.90;;;;;;5015860;28;20212;-74
2022/01/26 04:50:04;;;;;;;1999.90;999.90;;;3.20;99.90;;;;;;5015911;28;20270;-74
2022/01/26 04:52:30;;;;;;;1999.90;999.90;;;3.10;99.90;;;;;;5015860;28;20267;-75
2022/01/26 04:54:56;;;;;;;1999.90;999.90;;;3.10;99.90;;;;;;5015651;28;20571;-75
2022/01/26 04:57:21;;;;;;;1999.90;999.90;;;3.00;99.90;;;;;;5015995;28;20523;-75
2022/01/26 04:59:47;;;;;;;1999.90;999.90;;;3.00;99.90;;;;;;5015794;28;20222;-75
2022/01/26 05:02:13;;;;;;;1999.90;999.90;;;3.00;99.90;;;;;;5015775;28;20169;-74
2022/01/26 05:04:38;;;;;;;1999.90;999.90;;;2.90;99.90;;;;;;5015373;28;20595;-75
2022/01/26 05:07:04;;;;;;;1999.90;999.90;;;2.90;99.90;;;;;;5015556;28;20211;-75
2022/01/26 05:09:29;;;;;;;1999.90;999.90;;;2.90;99.90;;;;;;5015643;28;20165;-74
2022/01/26 05:11:56;;;;;;;1999.90;999.90;;;2.80;99.90;;;;;;5015533;28;20193;-73
2022/01/26 05:14:22;;;;;;;1999.90;999.90;;;2.80;99.90;;;;;;5015196;28;20180;-75
2022/01/26 05:16:48;;;;;;;1999.90;999.90;;;2.80;99.90;;;;;;5015485;28;20511;-74
2022/01/26 05:19:13;;;;;;;1999.90;999.90;;;2.80;99.90;;;;;;5015337;28;20162;-74
2022/01/26 05:21:41;;;;;;;1999.90;999.90;;;2.80;99.90;;;;;;5015322;28;20415;-75
2022/01/26 05:24:06;;;;;;;1999.90;999.90;;;2.70;99.90;;;;;;5014985;28;20181;-75
2022/01/26 05:26:32;;;;;;;1999.90;999.90;;;2.70;99.90;;;;;;5015319;28;20173;-75
2022/01/26 05:28:57;;;;;;;1999.90;999.90;;;2.70;99.90;;;;;;5015153;28;20205;-75
2022/01/26 05:31:23;;;;;;;1999.90;999.90;;;2.70;99.90;;;;;;5015195;28;20176;-74
2022/01/26 05:33:49;;;;;;;1999.90;999.90;;;2.70;99.90;;;;;;5014924;28;20942;-74
2022/01/26 05:36:15;;;;;;;1999.90;999.90;;;2.80;99.90;;;;;;5014841;28;20176;-75
2022/01/26 05:38:41;;;;;;;1999.90;999.90;;;2.70;99.90;;;;;;5015005;28;20408;-75
2022/01/26 05:41:08;;;;;;;1999.90;999.90;;;2.70;99.90;;;;;;5015071;28;20408;-74
2022/01/26 05:43:34;;;;;;;1999.90;999.90;;;2.70;99.90;;;;;;5014958;28;20432;-75
2022/01/26 05:46:06;;;;;;;1999.90;999.90;;;2.70;99.90;;;;;;5014606;28;20241;-74
2022/01/26 05:48:33;;;;;;;1999.90;999.90;;;2.70;99.90;;;;;;5014747;28;20681;-73
2022/01/26 05:51:06;;;;;;;1999.90;999.90;;;2.70;99.90;;;;;;5013861;28;20192;-75
2022/01/26 05:53:33;;;;;;;1999.90;999.90;;;2.60;99.90;;;;;;5014766;28;20211;-74
2022/01/26 05:55:59;;;;;;;1999.90;999.90;;;2.60;99.90;;;;;;5014320;28;20642;-75
2022/01/26 05:58:25;;;;;;;1999.90;999.90;;;2.60;99.90;;;;;;5014691;28;20248;-75
2022/01/26 06:00:51;;;;;;;1999.90;999.90;;;2.60;99.90;;;;;;5014698;28;20643;-75
2022/01/26 06:03:16;;;;;;;1999.90;999.90;;;2.60;99.90;;;;;;5014697;28;20221;-75
2022/01/26 06:05:42;;;;;;;1999.90;999.90;;;2.60;99.90;;;;;;4996630;28;20473;-73
2022/01/26 06:08:08;;;;;;;1999.90;999.90;;;2.60;99.90;;;;;;5014368;28;20208;-75
2022/01/26 06:10:34;;;;;;;1999.90;999.90;;;2.60;99.90;;;;;;5014510;28;20255;-75
2022/01/26 06:13:00;;;;;;;1999.90;999.90;;;2.60;99.90;;;;;;5014360;28;20617;-75
2022/01/26 06:15:25;;;;;;;1999.90;999.90;;;2.60;99.90;;;;;;5014148;28;20784;-75
2022/01/26 06:17:51;;;;;;;1999.90;999.90;;;2.60;99.90;;;;;;5014199;28;20494;-74
2022/01/26 06:20:17;;;;;;;1999.90;999.90;;;2.60;99.90;;;;;;5014276;28;20224;-75
2022/01/26 06:22:42;;;;;;;1999.90;999.90;;;2.70;99.90;;;;;;5014168;28;20201;-74
2022/01/26 06:25:09;;;;;;;1999.90;999.90;;;2.70;99.90;;;;;;4996406;28;20292;-75
2022/01/26 06:27:39;;;;;;;1999.90;999.90;;;2.70;99.90;;;;;;5014165;28;20659;-73
2022/01/26 06:30:06;;;;;;;1999.90;999.90;;;2.70;99.90;;;;;;5014089;28;20165;-75
2022/01/26 06:32:32;;;;;;;1999.90;999.90;;;2.70;99.90;;;;;;5013805;28;20169;-75
2022/01/26 06:34:58;;;;;;;1999.90;999.90;;;2.60;99.90;;;;;;5013738;28;20219;-75
2022/01/26 06:37:24;;;;;;;1999.90;999.90;;;2.60;99.90;;;;;;5013973;28;20648;-75
2022/01/26 06:39:50;;;;;;;1999.90;999.90;;;2.70;99.90;;;;;;5014197;28;20404;-75
2022/01/26 06:42:20;;;;;;;1999.90;999.90;;;2.70;99.90;;;;;;5013815;28;20432;-74
2022/01/26 06:49:52;;;;;;;1999.90;999.90;;;2.60;99.90;;;;;;5013949;28;20168;-74
2022/01/26 06:52:18;;;;;;;1999.90;999.90;;;2.60;99.90;;;;;;5013690;28;20177;-74
2022/01/26 06:54:44;;;;;;;1999.90;999.90;;;2.60;99.90;;;;;;5013291;28;20235;-73
2022/01/26 06:57:09;;;;;;;1999.90;999.90;;;2.60;99.90;;;;;;5013586;28;20281;-74
2022/01/26 06:59:36;;;;;;;1999.90;999.90;;;2.60;99.90;;;;;;5013585;28;20801;-74
2022/01/26 07:02:01;;;;;;;1999.90;999.90;;;2.70;99.90;;;;;;5013352;28;20180;-74
2022/01/26 07:04:27;;;;;;;1999.90;999.90;;;2.60;99.90;;;;;;5013143;28;20193;-74
2022/01/26 07:06:52;;;;;;;1999.90;999.90;;;2.60;99.90;;;;;;5013463;28;20196;-74
2022/01/26 07:09:19;;;;;;;1999.90;999.90;;;2.60;99.90;;;;;;5013384;28;20171;-74
2022/01/26 07:11:47;;;;;;;1999.90;999.90;;;2.60;99.90;;;;;;5013416;28;20164;-74
2022/01/26 07:14:23;;;;;;;1999.90;999.90;;;2.70;99.90;;;;;;5012919;28;20193;-74
2022/01/26 07:22:13;;;;;;;1999.90;999.90;;;2.70;99.90;;;;;;5013184;28;20165;-74
2022/01/26 07:24:39;;;;;;;1999.90;999.90;;;2.60;99.90;;;;;;5012722;28;20199;-75
2022/01/26 07:27:05;;;;;;;1999.90;999.90;;;2.60;99.90;;;;;;5012992;28;20541;-75
2022/01/26 07:29:32;;;;;;;1999.90;999.90;;;2.70;99.90;;;;;;5013062;28;20161;-75
2022/01/26 07:31:58;;;;;;;1999.90;999.90;;;2.80;99.90;;;;;;5013017;28;20205;-74
2022/01/26 07:34:24;;;;;;;1999.90;999.90;;;2.90;99.90;;;;;;5012504;28;20212;-74
2022/01/26 07:36:52;;;;;;;1999.90;999.90;;;2.90;99.90;;;;;;5012955;28;20192;-74
2022/01/26 07:39:29;;;;;;;1999.90;999.90;;;2.80;99.90;;;;;;5012921;28;20411;-74
2022/01/26 07:41:55;;;;;;;1999.90;999.90;;;2.80;99.90;;;;;;5012857;28;20219;-74
2022/01/26 07:44:21;;;;;;;1999.90;999.90;;;2.70;99.90;;;;;;5012393;28;20213;-73
2022/01/26 07:46:47;;;;;;;1999.90;999.90;;;2.70;99.90;;;;;;5012701;28;20200;-74
2022/01/26 07:49:12;;;;;;;1999.90;999.90;;;2.70;99.90;;;;;;5012672;28;20196;-74
2022/01/26 07:51:38;;;;;;;1999.90;999.90;;;2.70;99.90;;;;;;5012711;28;20177;-74
2022/01/26 07:54:03;;;;;;;1999.90;999.90;;;2.80;99.90;;;;;;5012260;28;20198;-74
2022/01/26 07:56:29;;;;;;;1999.90;999.90;;;2.80;99.90;;;;;;5012583;28;20184;-74
2022/01/26 07:58:56;;;;;;;1999.90;999.90;;;2.80;99.90;;;;;;5012598;28;20192;-74
2022/01/26 08:01:23;;;;;;;1999.90;999.90;;;2.80;99.90;;;;;;5012431;28;20161;-74
2022/01/26 08:03:49;;;;;;;1999.90;999.90;;;2.80;99.90;;;;;;5012492;28;20193;-73
2022/01/26 08:06:17;;;;;;;1999.90;999.90;;;2.80;99.90;;;;;;5012184;28;20523;-74
2022/01/26 08:08:43;;;;;;;1999.90;999.90;;;2.80;99.90;;;;;;5012293;28;20332;-73
2022/01/26 08:11:09;;;;;;;1999.90;999.90;;;2.80;99.90;;;;;;5012341;28;20268;-74
2022/01/26 08:13:35;;;;;;;1999.90;999.90;;;2.80;99.90;;;;;;4994410;28;21042;-74
2022/01/26 08:16:00;;;;;;;1999.90;999.90;;;2.90;99.90;;;;;;5011952;28;20169;-73
2022/01/26 08:18:26;;;;;;;1999.90;999.90;;;2.80;99.90;;;;;;5012304;28;20173;-73
2022/01/26 08:20:52;;;;;;;1999.90;999.90;;;2.80;99.90;;;;;;5012293;28;20180;-73
2022/01/26 08:23:20;;;;;;;1999.90;999.90;;;2.90;99.90;;;;;;5012173;28;20185;-73
2022/01/26 08:25:46;;;;;;;1999.90;999.90;;;2.80;99.90;;;;;;5011960;28;20169;-74
2022/01/26 08:28:21;;;;;;;1999.90;999.90;;;2.80;99.90;;;;;;5012177;28;20203;-74
2022/01/26 08:30:47;;;;;;;1999.90;999.90;;;2.80;99.90;;;;;;5012162;28;20469;-74
2022/01/26 08:33:13;;;;;;;1999.90;999.90;;;2.80;99.90;;;;;;5011925;28;20200;-73
2022/01/26 08:35:39;;;;;;;1999.90;999.90;;;2.70;99.90;;;;;;5011836;28;20196;-74
2022/01/26 08:38:04;;;;;;;1999.90;999.90;;;2.80;99.90;;;;;;5012104;28;20205;-74
2022/01/26 08:40:33;;;;;;;1999.90;999.90;;;2.80;99.90;;;;;;5012111;28;20184;-74
2022/01/26 08:42:59;;;;;;;1999.90;999.90;;;2.80;99.90;;;;;;5012123;28;20195;-74
2022/01/26 08:45:24;;;;;;;1999.90;999.90;;;2.80;99.90;;;;;;5011753;28;20173;-74
2022/01/26 08:47:50;;;;;;;1999.90;999.90;;;2.90;99.90;;;;;;5011891;28;20189;-74
2022/01/26 08:50:16;;;;;;;1999.90;999.90;;;2.90;99.90;;;;;;5012000;28;20169;-74
2022/01/26 08:52:42;;;;;;;1999.90;999.90;;;2.90;99.90;;;;;;5012054;28;20197;-73
2022/01/26 08:55:10;;;;;;;1999.90;999.90;;;3.00;99.90;;;;;;5011982;28;20254;-74
2022/01/26 08:57:36;;;;;;;1999.90;999.90;;;3.10;99.90;;;;;;5011960;28;20169;-74
2022/01/26 09:00:05;;;;;;;1999.90;999.90;;;3.10;99.90;;;;;;5011929;28;20303;-73
2022/01/26 09:02:30;;;;;;;1999.90;999.90;;;3.20;99.90;;;;;;5012280;28;20205;-74
2022/01/26 09:04:56;;;;;;;1999.90;999.90;;;3.10;99.90;;;;;;5011626;28;20283;-74
2022/01/26 09:07:21;;;;;;;1999.90;999.90;;;3.10;99.90;;;;;;5011746;28;20215;-74
2022/01/26 09:09:47;;;;;;;1999.90;999.90;;;3.10;99.90;;;;;;5011811;28;20256;-74
2022/01/26 09:12:16;;;;;;;1999.90;999.90;;;3.10;99.90;;;;;;5011803;28;20169;-74
2022/01/26 09:14:42;;;;;;;1999.90;999.90;;;3.10;99.90;;;;;;5011461;28;20943;-74
2022/01/26 09:17:10;;;;;;;1999.90;999.90;;;3.10;99.90;;;;;;5011774;28;20173;-73
2022/01/26 09:19:36;;;;;;;1999.90;999.90;;;3.10;99.90;;;;;;5011706;28;20161;-74
2022/01/26 09:22:03;;;;;;;1999.90;999.90;;;3.00;99.90;;;;;;5011679;28;20176;-73
2022/01/26 09:24:31;;;;;;;1999.90;999.90;;;3.00;99.90;;;;;;5011526;28;20263;-74
2022/01/26 09:26:58;;;;;;;1999.90;999.90;;;3.00;99.90;;;;;;5015291;28;20173;-74
2022/01/26 09:29:24;;;;;;;1999.90;999.90;;;3.00;99.90;;;;;;5015148;28;20191;-73
2022/01/26 09:31:50;;;;;;;1999.90;999.90;;;3.00;99.90;;;;;;5013598;28;20549;-73
2022/01/26 09:34:17;;;;;;;1999.90;999.90;;;3.00;99.90;;;;;;5014943;28;20502;-73
2022/01/26 09:36:43;;;;;;;1999.90;999.90;;;3.00;99.90;;;;;;5015145;28;20191;-72
2022/01/26 09:39:09;;;;;;;1999.90;999.90;;;3.00;99.90;;;;;;5015165;28;20582;-73
2022/01/26 09:41:37;;;;;;;1999.90;999.90;;;3.00;99.90;;;;;;5015144;28;20216;-73
2022/01/26 09:44:04;;;;;;;1999.90;999.90;;;3.10;99.90;;;;;;5014553;28;20423;-74
2022/01/26 09:46:30;;;;;;;1999.90;999.90;;;3.10;99.90;;;;;;5015021;28;20205;-75
2022/01/26 09:48:56;;;;;;;1999.90;999.90;;;3.10;99.90;;;;;;5014663;28;20201;-75
2022/01/26 09:51:22;;;;;;;1999.90;999.90;;;3.10;99.90;;;;;;5014759;28;20173;-74
2022/01/26 09:54:09;;;;;;;1999.90;999.90;;;3.10;99.90;;;;;;5014744;28;20676;-73
2022/01/26 09:56:35;;;;;;;1999.90;999.90;;;3.10;99.90;;;;;;5014703;28;20459;-74
2022/01/26 09:59:00;;;;;;;1999.90;999.90;;;3.20;99.90;;;;;;5014645;28;20612;-73
2022/01/26 10:01:26;;;;;;;1999.90;999.90;;;3.20;99.90;;;;;;5014597;28;20623;-74
2022/01/26 10:03:52;;;;;;;1999.90;999.90;;;3.20;99.90;;;;;;5014471;28;20272;-74
2022/01/26 10:06:26;;;;;;;1999.90;999.90;;;3.20;99.90;;;;;;5014225;28;20642;-72
2022/01/26 10:09:15;;;;;;;1999.90;999.90;;;3.30;99.90;;;;;;5014399;28;20200;-72
2022/01/26 10:17:26;;;;;;;1999.90;999.90;;;3.30;99.90;;;;;;5014637;28;20211;-74
2022/01/26 10:20:00;;;;;;;1999.90;999.90;;;3.30;99.90;;;;;;5014356;28;20219;-75
2022/01/26 10:22:33;;;;;;;1999.90;999.90;;;3.30;99.90;;;;;;5014191;28;20176;-75
2022/01/26 10:25:17;;;;;;;1999.90;999.90;;;3.30;99.90;;;;;;5013949;28;20162;-75
2022/01/26 10:27:46;;;;;;;1999.90;999.90;;;3.40;99.90;;;;;;5013850;28;20276;-73
2022/01/26 10:30:14;;;;;;;1999.90;999.90;;;3.30;99.90;;;;;;5013999;28;20177;-74
2022/01/26 10:32:42;;;;;;;1999.90;999.90;;;3.30;99.90;;;;;;5013872;28;20176;-75
2022/01/26 10:35:08;;;;;;;1999.90;999.90;;;3.30;99.90;;;;;;5008592;28;20172;-73
2022/01/26 10:37:35;;;;;;;1999.90;999.90;;;3.40;99.90;;;;;;5012294;28;20248;-72
2022/01/26 10:40:17;;;;;;;1999.90;999.90;;;3.30;99.90;;;;;;5013198;28;20703;-70
2022/01/26 10:43:08;;;;;;;1999.90;999.90;;;3.30;99.90;;;;;;5013280;28;20200;-72
2022/01/26 10:48:42;;;;;;;1999.90;999.90;;;3.30;99.90;;;;;;5044156;22;20215;-74
2022/01/26 10:53:51;;;;;;;1999.90;999.90;;;3.30;99.90;;;;;;5074780;28;20221;-74
2022/01/26 10:56:17;;;;;;;1999.90;999.90;;;3.30;99.90;;;;;;5072024;28;20194;-74
2022/01/26 10:58:43;;;;;;;1999.90;999.90;;;3.30;99.90;;;;;;5070739;28;20266;-72
2022/01/26 11:01:08;;;;;;;1999.90;999.90;;;3.30;99.90;;;;;;5073691;28;20218;-72
2022/01/26 11:03:34;;;;;;;1999.90;999.90;;;3.30;99.90;;;;;;5073934;28;20175;-73
2022/01/26 11:06:07;;;;;;;1999.90;999.90;;;3.30;99.90;;;;;;5072348;28;20174;-73
2022/01/26 11:08:38;;;;;;;1999.90;999.90;;;3.40;99.90;;;;;;5072985;28;20675;-73
2022/01/26 11:11:04;;;;;;;1999.90;999.90;;;3.40;99.90;;;;;;5054815;28;20186;-73
2022/01/26 11:13:35;;;;;;;1999.90;999.90;;;3.50;99.90;;;;;;5072559;28;20160;-73
2022/01/26 11:16:12;;;;;;;1999.90;999.90;;;3.40;99.90;;;;;;5071724;28;20167;-74
2022/01/26 11:18:52;;;;;;;1999.90;999.90;;;3.40;99.90;;;;;;5072096;28;20543;-75
2022/01/26 11:21:34;;;;;;;1999.90;999.90;;;3.40;99.90;;;;;;5071961;28;20721;-72
2022/01/26 11:24:11;;;;;;;1999.90;999.90;;;3.40;99.90;;;;;;5071586;28;20171;-74
2022/01/26 11:26:38;;;;;;;1999.90;999.90;;;3.30;99.90;;;;;;5071928;28;20166;-74
2022/01/26 11:29:14;;;;;;;1999.90;999.90;;;3.30;99.90;;;;;;5072193;28;20211;-72
2022/01/26 11:31:41;;;;;;;1999.90;999.90;;;3.30;99.90;;;;;;5071914;28;20581;-72
2022/01/26 11:34:08;;;;;;;1999.90;999.90;;;3.30;99.90;;;;;;5071854;28;20570;-72
2022/01/26 11:36:34;;;;;;;1999.90;999.90;;;3.30;99.90;;;;;;5071557;28;20242;-75
2022/01/26 11:47:30;;;;;;;1999.90;999.90;;;3.30;99.90;;;;;;5070531;28;20178;-76
2022/01/26 11:50:10;;;;;;;1999.90;999.90;;;3.30;99.90;;;;;;5071883;28;20644;-76
2022/01/26 11:52:38;;;;;;;1999.90;999.90;;;3.30;99.90;;;;;;5071699;28;20182;-76
2022/01/26 11:55:09;;;;;;;1999.90;999.90;;;3.30;99.90;;;;;;5071124;28;20167;-76
2022/01/26 11:57:52;;;;;;;1999.90;999.90;;;3.30;99.90;;;;;;5071400;28;20238;-75
2022/01/26 12:00:40;;;;;;;1999.90;999.90;;;3.30;99.90;;;;;;5071891;28;20213;-76
2022/01/26 12:03:10;;;;;;;1999.90;999.90;;;3.30;99.90;;;;;;5071705;28;20588;-76
2022/01/26 12:05:45;;;;;;;1999.90;999.90;;;3.30;99.90;;;;;;5071279;28;20174;-75
2022/01/26 12:08:11;;;;;;;1999.90;999.90;;;3.30;99.90;;;;;;5070752;28;20226;-76
2022/01/26 12:10:38;;;;;;;1999.90;999.90;;;3.30;99.90;;;;;;5071549;28;20211;-75
2022/01/26 12:13:05;;;;;;;1999.90;999.90;;;3.30;99.90;;;;;;5071464;28;20166;-75
2022/01/26 12:15:44;;;;;;;1999.90;999.90;;;3.30;99.90;;;;;;5070779;28;20273;-75
2022/01/26 12:32:37;;;;;;;1999.90;999.90;;;3.40;99.90;;;;;;5071047;28;20178;-76
2022/01/26 12:38:42;;;;;;;1999.90;999.90;;;3.40;99.90;;;;;;5070752;28;20205;-75
2022/01/26 12:43:40;;;;;;;1999.90;999.90;;;3.50;99.90;;;;;;5071394;28;20183;-76
2022/01/26 12:46:09;;;;;;;1999.90;999.90;;;3.50;99.90;;;;;;5070404;28;20167;-75
2022/01/26 12:48:39;;;;;;;1999.90;999.90;;;3.50;99.90;;;;;;5070897;28;20729;-75
2022/01/26 12:51:06;;;;;;;1999.90;999.90;;;3.50;99.90;;;;;;5071062;28;20167;-76
2022/01/26 12:53:35;;;;;;;1999.90;999.90;;;3.50;99.90;;;;;;5052536;28;20171;-76
2022/01/26 12:56:06;;;;;;;1999.90;999.90;;;3.40;99.90;;;;;;5070671;28;20266;-76
2022/01/26 12:58:35;;;;;;;1999.90;999.90;;;3.40;99.90;;;;;;5071153;28;20248;-76
2022/01/26 13:01:04;;;;;;;1999.90;999.90;;;3.40;99.90;;;;;;5074577;28;20175;-76
2022/01/26 13:03:35;;;;;;;1999.90;999.90;;;3.40;99.90;;;;;;5075052;28;20167;-76
2022/01/26 13:06:24;;;;;;;1999.90;999.90;;;3.40;99.90;;;;;;5074531;28;20167;-76
2022/01/26 13:08:55;;;;;;;1999.90;999.90;;;3.40;99.90;;;;;;5074455;28;20342;-76
2022/01/26 13:11:32;;;;;;;1999.90;999.90;;;3.40;99.90;;;;;;5074991;28;20592;-76
2022/01/26 13:14:26;;;;;;;1999.90;999.90;;;3.40;99.90;;;;;;5074882;28;20249;-75
2022/01/26 13:17:21;;;;;;;1999.90;999.90;;;3.40;99.90;;;;;;5073969;28;20190;-76
2022/01/26 13:34:18;;;;;;;1999.90;999.90;;;3.50;99.90;;;;;;5079249;28;20663;-72
2022/01/26 13:50:04;;;;;;;1999.90;999.90;;;3.40;99.90;;;;;;5074069;28;20189;-72
2022/01/26 13:52:41;;;;;;;1999.90;999.90;;;3.40;99.90;;;;;;5073643;28;20568;-72
2022/01/26 13:55:43;;;;;;;1999.90;999.90;;;3.40;99.90;;;;;;5073875;28;20202;-72
2022/01/26 14:01:03;;;;;;;1999.90;999.90;;;3.50;99.90;;;;;;5073566;28;20660;-72
2022/01/26 14:03:31;;;;;;;1999.90;999.90;;;3.50;99.90;;;;;;5073492;28;20174;-72
2022/01/26 14:05:57;;;;;;;1999.90;999.90;;;3.50;99.90;;;;;;5073438;28;20167;-72
2022/01/26 14:08:23;;;;;;;1999.90;999.90;;;3.40;99.90;;;;;;5073126;28;20865;-72
2022/01/26 14:10:49;;;;;;;1999.90;999.90;;;3.40;99.90;;;;;;5072821;28;20174;-71
2022/01/26 14:13:20;;;;;;;1999.90;999.90;;;3.50;99.90;;;;;;5073828;28;20882;-73
2022/01/26 14:15:50;;;;;;;1999.90;999.90;;;3.40;99.90;;;;;;5073006;28;20189;-76
2022/01/26 14:20:56;;;;;;;1999.90;999.90;;;3.40;99.90;;;;;;5071504;28;20286;-76
2022/01/26 14:25:51;;;;;;;1999.90;999.90;;;3.40;99.90;;;;;;5070698;28;20281;-77
2022/01/26 14:28:19;;;;;;;1999.90;999.90;;;3.40;99.90;;;;;;5071385;28;20194;-76
2022/01/26 14:33:32;;;;;;;1999.90;999.90;;;3.40;99.90;;;;;;5072217;28;20515;-76
2022/01/26 15:29:57;;;;;;;1999.90;999.90;;;3.30;99.90;;;;;;5067888;28;20786;-75
2022/01/26 15:35:27;;;;;;;1999.90;999.90;;;3.40;99.90;;;;;;5067532;28;20248;-76
2022/01/26 16:04:18;;;;;;;1999.90;999.90;;;3.30;99.90;;;;;;5068531;28;20210;-76
2022/01/26 16:08:26;;;;;;;1999.90;999.90;;;3.30;99.90;;;;;;5068466;28;20202;-75
2022/01/26 16:26:21;;;;;;;1999.90;999.90;;;3.40;99.90;;;;;;5068081;28;20186;-76
2022/01/26 17:34:27;;;;;;;1999.90;999.90;;;3.10;99.90;;;;;;5072946;28;20191;-73
2022/01/26 18:15:46;;;;;;;1999.90;999.90;;;3.20;99.90;;;;;;5070300;28;20190;-73
2022/01/26 18:26:24;;;;;;;1999.90;999.90;;;3.30;99.90;;;;;;5069212;28;20205;-72
2022/01/26 18:50:59;;;;;;;1999.90;999.90;;;3.30;99.90;;;;;;5070367;28;20194;-76
2022/01/26 18:53:24;;;;;;;1999.90;999.90;;;3.40;99.90;;;;;;5069863;28;20629;-76
2022/01/26 18:55:52;;;;;;;1999.90;999.90;;;3.40;99.90;;;;;;5069360;28;20228;-77
2022/01/26 18:58:18;;;;;;;1999.90;999.90;;;3.40;99.90;;;;;;5068913;28;20219;-76
2022/01/26 19:00:44;;;;;;;1999.90;999.90;;;3.40;99.90;;;;;;5069144;28;20694;-77
2022/01/26 19:03:11;;;;;;;1999.90;999.90;;;3.40;99.90;;;;;;5069405;28;20223;-77
2022/01/26 19:05:37;;;;;;;1999.90;999.90;;;3.40;99.90;;;;;;5069055;28;20175;-76
2022/01/26 19:08:03;;;;;;;1999.90;999.90;;;3.40;99.90;;;;;;5068841;28;20198;-77
2022/01/26 19:10:29;;;;;;;1999.90;999.90;;;3.40;99.90;;;;;;5068828;28;20547;-77
2022/01/26 19:12:55;;;;;;;1999.90;999.90;;;3.40;99.90;;;;;;5050951;28;20413;-76
2022/01/26 19:15:24;;;;;;;1999.90;999.90;;;3.30;99.90;;;;;;5069097;28;20219;-75
2022/01/26 19:22:57;;;;;;;1999.90;999.90;;;3.30;99.90;;;;;;5068963;28;20186;-75
2022/01/26 19:25:32;;;;;;;1999.90;999.90;;;3.30;99.90;;;;;;5050439;28;20894;-74
2022/01/26 19:51:08;;;;;;;1999.90;999.90;;;3.20;99.90;;;;;;5068489;28;20206;-76
2022/01/26 19:53:35;;;;;;;1999.90;999.90;;;3.20;99.90;;;;;;5050681;28;20270;-75